Time;durP1;ratioP1;P1;durP2;ratioP2;P2;SDS_P1;SDS_P2;PMS_P1;PMS_P2;Temp;Humidity;BMP_temperature;BMP_pressure;BME280_temperature;BME280_humidity;BME280_pressure;Samples;Min_cycle;Max_cycle;Signal;HPM_P1;HPM_P2
2022/09/07 00:01:06;;;;;;;7.97;5.00;;;19.40;99.90;;;;;;5001297;28;20077;-85
2022/09/07 00:03:32;;;;;;;10.85;5.50;;;19.30;99.90;;;;;;5017872;28;20120;-85
2022/09/07 00:05:58;;;;;;;6.93;4.35;;;19.30;99.90;;;;;;5001927;28;20045;-85
2022/09/07 00:08:26;;;;;;;7.72;4.63;;;19.30;99.90;;;;;;5010812;28;20113;-81
2022/09/07 00:10:57;;;;;;;6.53;4.47;;;19.20;99.90;;;;;;5006313;28;20129;-81
2022/09/07 00:13:25;;;;;;;6.10;4.28;;;19.20;99.90;;;;;;5017443;28;20045;-81
2022/09/07 00:15:51;;;;;;;10.82;5.72;;;19.20;99.90;;;;;;5017459;28;20530;-81
2022/09/07 00:18:17;;;;;;;12.52;5.07;;;19.10;99.90;;;;;;5000721;28;20037;-81
2022/09/07 00:20:42;;;;;;;8.05;4.75;;;19.10;99.90;;;;;;5026627;28;20049;-81
2022/09/07 00:23:08;;;;;;;8.00;4.72;;;19.10;99.90;;;;;;5001101;28;20406;-82
2022/09/07 00:25:38;;;;;;;8.55;4.93;;;19.10;99.90;;;;;;5017398;28;20450;-84
2022/09/07 00:28:05;;;;;;;6.60;3.70;;;19.10;99.90;;;;;;5001087;28;20045;-81
2022/09/07 00:30:31;;;;;;;7.70;4.82;;;19.00;99.90;;;;;;5016803;28;20033;-81
2022/09/07 00:32:57;;;;;;;9.57;6.07;;;19.00;99.90;;;;;;5000378;28;20176;-80
2022/09/07 00:35:23;;;;;;;10.30;5.57;;;19.00;99.90;;;;;;5017585;28;20118;-81
2022/09/07 00:37:48;;;;;;;11.70;6.45;;;18.90;99.90;;;;;;4985125;28;20458;-80
2022/09/07 00:40:15;;;;;;;11.23;6.72;;;18.80;99.90;;;;;;4999763;28;20479;-84
2022/09/07 00:42:40;;;;;;;14.18;7.07;;;18.80;99.90;;;;;;5010497;28;20037;-84
2022/09/07 00:45:19;;;;;;;8.30;5.63;;;18.80;99.90;;;;;;5016606;28;20046;-84
2022/09/07 00:48:02;;;;;;;8.90;5.63;;;18.80;99.90;;;;;;5016514;28;20048;-81
2022/09/07 00:50:34;;;;;;;7.22;5.10;;;18.80;99.90;;;;;;5015761;28;20056;-81
2022/09/07 00:53:18;;;;;;;8.00;4.00;;;18.80;99.90;;;;;;5000011;28;20068;-81
2022/09/07 00:55:47;;;;;;;6.47;3.92;;;18.90;99.90;;;;;;5000016;28;20056;-81
2022/09/07 00:58:13;;;;;;;9.25;5.93;;;18.90;99.90;;;;;;5016517;28;20103;-85
2022/09/07 01:00:40;;;;;;;9.85;5.63;;;18.80;99.90;;;;;;4999556;28;20045;-85
2022/09/07 01:03:07;;;;;;;6.47;4.35;;;18.80;99.90;;;;;;5015779;28;20041;-85
2022/09/07 01:05:40;;;;;;;7.25;4.53;;;18.80;99.90;;;;;;5000621;28;20502;-85
2022/09/07 01:08:07;;;;;;;6.85;4.00;;;18.80;99.90;;;;;;5016363;28;20048;-85
2022/09/07 01:10:34;;;;;;;8.55;4.85;;;18.80;99.90;;;;;;5016576;28;20051;-85
2022/09/07 01:13:00;;;;;;;8.15;4.88;;;18.80;99.90;;;;;;4991518;28;20400;-85
2022/09/07 01:15:49;;;;;;;6.55;4.28;;;18.80;99.90;;;;;;4985907;28;20084;-81
2022/09/07 01:18:36;;;;;;;7.65;5.10;;;18.80;99.90;;;;;;4999683;28;20087;-81
2022/09/07 01:21:17;;;;;;;8.57;4.53;;;18.70;99.90;;;;;;5016445;28;20045;-81
2022/09/07 01:24:21;;;;;;;7.65;4.28;;;18.70;99.90;;;;;;5015914;28;20084;-81
2022/09/07 01:27:25;;;;;;;11.63;5.20;;;18.70;99.90;;;;;;5032068;28;20045;-81
2022/09/07 01:30:07;;;;;;;9.30;5.40;;;18.70;99.90;;;;;;4977190;28;20053;-81
2022/09/07 01:32:54;;;;;;;11.88;5.47;;;18.60;99.90;;;;;;5016011;28;20041;-85
2022/09/07 01:35:38;;;;;;;10.73;6.03;;;18.60;99.90;;;;;;5015958;28;20041;-85
2022/09/07 01:38:22;;;;;;;11.15;6.53;;;18.60;99.90;;;;;;4999784;28;20037;-85
2022/09/07 01:41:06;;;;;;;14.30;6.20;;;18.50;99.90;;;;;;4980626;28;20037;-85
2022/09/07 01:43:35;;;;;;;10.05;4.90;;;18.40;99.90;;;;;;4998415;28;20053;-85
2022/09/07 01:46:05;;;;;;;11.50;4.07;;;18.30;99.90;;;;;;5015873;28;20399;-85
2022/09/07 01:48:32;;;;;;;7.97;3.92;;;18.20;99.90;;;;;;5016154;28;20044;-85
2022/09/07 01:51:02;;;;;;;6.85;4.10;;;18.10;99.90;;;;;;4999400;28;20052;-85
2022/09/07 01:53:39;;;;;;;11.68;4.47;;;18.10;99.90;;;;;;5015812;28;20045;-85
2022/09/07 01:56:12;;;;;;;7.07;3.10;;;18.00;99.90;;;;;;4999445;28;20037;-85
2022/09/07 01:59:18;;;;;;;5.45;2.65;;;18.00;99.90;;;;;;5011605;28;20039;-85
2022/09/07 02:01:56;;;;;;;4.00;1.80;;;17.90;99.90;;;;;;5014373;28;20045;-85
2022/09/07 02:04:30;;;;;;;4.63;2.15;;;17.90;99.90;;;;;;5015825;28;20475;-85
2022/09/07 02:07:16;;;;;;;4.13;1.98;;;17.90;99.90;;;;;;5000005;28;20041;-85
2022/09/07 02:09:57;;;;;;;5.82;2.30;;;17.80;99.90;;;;;;4998722;28;20045;-85
2022/09/07 02:12:35;;;;;;;6.65;3.00;;;17.80;99.90;;;;;;5016774;28;20041;-85
2022/09/07 02:15:05;;;;;;;6.63;2.70;;;17.80;99.90;;;;;;5037733;28;20030;-85
2022/09/07 02:17:35;;;;;;;6.63;2.53;;;17.80;99.90;;;;;;5019594;28;20045;-85
2022/09/07 02:20:11;;;;;;;4.88;2.75;;;17.80;99.90;;;;;;5003434;28;20052;-85
2022/09/07 02:22:42;;;;;;;5.32;2.80;;;17.70;99.90;;;;;;4999951;28;20041;-82
2022/09/07 02:25:11;;;;;;;5.57;3.58;;;17.70;99.90;;;;;;5001218;28;20098;-82
2022/09/07 02:27:47;;;;;;;5.72;3.15;;;17.70;99.90;;;;;;5016879;28;20049;-82
2022/09/07 02:30:13;;;;;;;6.93;2.97;;;17.70;99.90;;;;;;4998961;28;20476;-82
2022/09/07 02:32:39;;;;;;;5.82;2.95;;;17.70;99.90;;;;;;5019341;28;20103;-82
2022/09/07 02:35:05;;;;;;;5.82;3.38;;;17.70;99.90;;;;;;5002646;28;20045;-82
2022/09/07 02:37:33;;;;;;;6.72;2.72;;;17.60;99.90;;;;;;5018842;28;20038;-84
2022/09/07 02:39:59;;;;;;;5.88;3.20;;;17.50;99.90;;;;;;5019103;28;20049;-85
2022/09/07 02:42:29;;;;;;;4.95;2.38;;;17.50;99.90;;;;;;5002725;28;20191;-84
2022/09/07 02:44:55;;;;;;;2.67;1.60;;;17.50;99.90;;;;;;5019071;28;20038;-84
2022/09/07 02:47:24;;;;;;;8.57;2.42;;;17.50;99.90;;;;;;5019141;28;20040;-85
2022/09/07 02:50:08;;;;;;;3.97;1.90;;;17.50;99.90;;;;;;5002394;28;20483;-85
2022/09/07 02:52:52;;;;;;;3.17;1.88;;;17.50;99.90;;;;;;5012403;28;20038;-85
2022/09/07 02:56:05;;;;;;;2.90;1.77;;;17.50;99.90;;;;;;5018702;28;20479;-82
2022/09/07 02:58:54;;;;;;;1.95;1.38;;;17.50;99.90;;;;;;5015354;28;20040;-82
2022/09/07 03:01:41;;;;;;;3.45;1.80;;;17.50;99.90;;;;;;5017911;28;20130;-82
2022/09/07 03:04:17;;;;;;;1.48;1.27;;;17.50;99.90;;;;;;5018642;28;20042;-82
2022/09/07 03:06:56;;;;;;;2.53;1.50;;;17.50;99.90;;;;;;5018698;28;20400;-82
2022/09/07 03:09:27;;;;;;;3.00;1.33;;;17.50;99.90;;;;;;5002362;28;20052;-82
2022/09/07 03:11:53;;;;;;;2.80;1.70;;;17.50;99.90;;;;;;5018432;28;20124;-81
2022/09/07 03:14:22;;;;;;;1.90;1.30;;;17.50;99.90;;;;;;5017795;28;20167;-82
2022/09/07 03:16:51;;;;;;;2.55;1.40;;;17.50;99.90;;;;;;5018838;28;20033;-82
2022/09/07 03:19:17;;;;;;;5.97;2.55;;;17.50;99.90;;;;;;5018173;28;20033;-82
2022/09/07 03:21:43;;;;;;;3.17;1.80;;;17.50;99.90;;;;;;5002260;28;20041;-81
2022/09/07 03:24:09;;;;;;;4.13;2.00;;;17.40;99.90;;;;;;5011664;28;20060;-82
2022/09/07 03:26:41;;;;;;;2.33;1.40;;;17.40;99.90;;;;;;5002982;28;20045;-81
2022/09/07 03:29:07;;;;;;;2.58;1.17;;;17.40;99.90;;;;;;5018785;28;20041;-85
2022/09/07 03:31:34;;;;;;;2.70;1.40;;;17.40;99.90;;;;;;5017755;28;20060;-85
2022/09/07 03:34:00;;;;;;;2.45;1.42;;;17.80;99.90;;;;;;5001311;28;20045;-85
2022/09/07 03:36:25;;;;;;;2.83;1.63;;;17.40;99.90;;;;;;5001457;28;20044;-85
2022/09/07 03:38:51;;;;;;;3.10;1.70;;;17.40;99.90;;;;;;5001663;28;20484;-85
2022/09/07 03:41:17;;;;;;;3.33;1.67;;;17.30;99.90;;;;;;5017016;28;20040;-85
2022/09/07 03:43:42;;;;;;;3.30;2.03;;;17.30;99.90;;;;;;4985669;28;20063;-85
2022/09/07 03:46:09;;;;;;;2.00;1.33;;;17.30;99.90;;;;;;5001798;28;20047;-85
2022/09/07 03:48:37;;;;;;;3.80;1.98;;;17.20;99.90;;;;;;4984918;28;20050;-84
2022/09/07 03:51:08;;;;;;;2.10;1.38;;;17.20;99.90;;;;;;4998278;28;20038;-84
2022/09/07 03:53:38;;;;;;;5.57;1.60;;;17.10;99.90;;;;;;5011986;28;20053;-84
2022/09/07 03:56:10;;;;;;;4.03;1.77;;;17.10;99.90;;;;;;5017846;28;20124;-85
2022/09/07 03:58:36;;;;;;;3.30;1.38;;;17.00;99.90;;;;;;5017871;28;20476;-84
2022/09/07 04:01:10;;;;;;;2.42;1.33;;;17.00;99.90;;;;;;5017575;28;20132;-85
2022/09/07 04:03:36;;;;;;;2.58;1.30;;;17.00;99.90;;;;;;5017661;28;20034;-85
2022/09/07 04:06:03;;;;;;;3.35;1.23;;;16.90;99.90;;;;;;5001586;28;20041;-85
2022/09/07 04:08:30;;;;;;;1.80;1.05;;;16.90;99.90;;;;;;5017465;28;20045;-85
2022/09/07 04:10:57;;;;;;;0.88;0.77;;;16.90;99.90;;;;;;5033547;28;20396;-85
2022/09/07 04:13:24;;;;;;;1.20;1.10;;;16.90;99.90;;;;;;5017233;28;20084;-85
2022/09/07 04:15:50;;;;;;;1.55;1.20;;;16.90;99.90;;;;;;5017780;28;20388;-85
2022/09/07 04:18:16;;;;;;;2.55;1.55;;;16.90;99.90;;;;;;5000851;28;20038;-81
2022/09/07 04:20:43;;;;;;;4.40;1.40;;;16.90;99.90;;;;;;4983463;28;20046;-82
2022/09/07 11:42:05;;;;;;;1.52;0.80;;;30.90;82.10;;;;;;4324564;27;20512;-90
2022/09/07 11:44:39;;;;;;;1.65;0.77;;;30.70;80.40;;;;;;4857889;29;20084;-90
2022/09/07 11:47:29;;;;;;;2.03;0.93;;;31.30;82.30;;;;;;4860356;29;20046;-85
2022/09/07 11:49:56;;;;;;;1.65;0.98;;;31.40;81.30;;;;;;4861650;29;20056;-85
2022/09/07 11:52:41;;;;;;;0.93;0.68;;;31.30;81.10;;;;;;4831154;29;20041;-85
2022/09/07 11:55:13;;;;;;;2.30;0.75;;;31.50;81.30;;;;;;4861524;29;20573;-85
2022/09/07 11:57:47;;;;;;;1.67;0.70;;;31.00;81.50;;;;;;4861504;29;20041;-85
2022/09/07 12:00:21;;;;;;;1.45;1.00;;;30.60;82.50;;;;;;4861171;29;20041;-85
2022/09/07 12:02:47;;;;;;;2.20;1.00;;;30.60;81.10;;;;;;4874537;29;20045;-84
2022/09/07 12:05:30;;;;;;;3.13;1.20;;;30.60;83.10;;;;;;4845158;29;20052;-86
2022/09/07 12:08:34;;;;;;;0.95;0.80;;;30.50;82.80;;;;;;4845925;29;20048;-86
2022/09/07 12:11:15;;;;;;;1.50;0.88;;;30.40;83.00;;;;;;4861639;29;20138;-86
2022/09/07 12:14:14;;;;;;;1.27;0.50;;;30.70;83.40;;;;;;4859623;29;20045;-86
2022/09/07 12:17:07;;;;;;;0.95;0.80;;;30.40;84.00;;;;;;4859567;29;20045;-86
2022/09/07 12:19:32;;;;;;;0.93;0.75;;;30.90;81.60;;;;;;4821453;29;20060;-86
2022/09/07 12:21:59;;;;;;;1.35;0.80;;;30.60;80.40;;;;;;4845430;29;20101;-90
2022/09/07 12:24:33;;;;;;;0.73;0.60;;;30.60;82.90;;;;;;4845297;29;20334;-90
2022/09/07 12:27:01;;;;;;;0.95;0.50;;;30.80;81.50;;;;;;4843445;29;20045;-90
2022/09/07 12:29:28;;;;;;;1.92;1.02;;;31.10;82.40;;;;;;4845852;29;20045;-90
2022/09/07 12:31:56;;;;;;;3.25;1.10;;;30.80;81.10;;;;;;4845349;29;20184;-90
2022/09/07 12:34:31;;;;;;;0.75;0.63;;;30.10;81.80;;;;;;4867694;29;20124;-90
2022/09/07 12:36:59;;;;;;;1.23;0.82;;;30.10;84.10;;;;;;4855388;29;20117;-90
2022/09/07 12:39:27;;;;;;;1.95;0.70;;;29.80;82.70;;;;;;4845338;29;20053;-90
2022/09/07 12:42:05;;;;;;;1.65;0.85;;;29.50;84.10;;;;;;4860250;29;20062;-89
2022/09/07 12:44:32;;;;;;;0.68;0.63;;;29.30;83.20;;;;;;4845523;29;20045;-90
2022/09/07 12:47:00;;;;;;;0.77;0.60;;;29.10;84.90;;;;;;4860709;29;20041;-89
2022/09/07 12:49:40;;;;;;;0.80;0.70;;;29.10;84.10;;;;;;4830523;29;20077;-90
2022/09/07 12:52:48;;;;;;;0.98;0.88;;;29.20;84.30;;;;;;4845377;29;20087;-90
2022/09/07 12:55:23;;;;;;;0.98;0.77;;;29.00;84.60;;;;;;4859888;29;20053;-89
2022/09/07 12:58:12;;;;;;;4.22;0.75;;;29.10;84.20;;;;;;4859984;29;20564;-89
2022/09/07 13:01:03;;;;;;;1.25;0.70;;;28.90;84.50;;;;;;4863337;29;20064;-89
2022/09/07 13:04:03;;;;;;;1.58;1.08;;;29.20;84.90;;;;;;4859934;29;20178;-89
2022/09/07 13:06:54;;;;;;;1.23;0.90;;;29.40;84.80;;;;;;4856568;29;20050;-89
2022/09/07 13:09:30;;;;;;;1.48;1.02;;;29.10;84.50;;;;;;4875965;29;20088;-89
2022/09/07 13:11:58;;;;;;;3.22;0.82;;;29.20;86.80;;;;;;4883465;29;20046;-85
2022/09/07 13:14:26;;;;;;;2.20;1.30;;;29.50;84.80;;;;;;4860019;29;20875;-85
2022/09/07 13:17:29;;;;;;;1.45;0.70;;;29.70;85.40;;;;;;4860306;29;20069;-85
2022/09/07 13:19:55;;;;;;;1.85;1.00;;;29.80;84.50;;;;;;4848740;29;20037;-85
2022/09/07 13:22:30;;;;;;;2.25;1.05;;;30.00;84.60;;;;;;4844710;29;20098;-85
2022/09/07 13:25:01;;;;;;;0.70;0.70;;;29.90;83.30;;;;;;4860092;29;20038;-85
2022/09/07 13:27:52;;;;;;;1.40;0.70;;;30.00;84.50;;;;;;4846727;29;20294;-88
2022/09/07 13:31:00;;;;;;;0.82;0.68;;;29.90;83.10;;;;;;4860805;29;20054;-88
2022/09/07 13:33:28;;;;;;;1.92;0.82;;;29.40;84.20;;;;;;4857128;29;20071;-88
2022/09/07 13:36:14;;;;;;;1.17;0.93;;;29.00;84.90;;;;;;4856591;29;20044;-88
2022/09/07 13:38:41;;;;;;;2.00;0.90;;;28.90;84.30;;;;;;4846206;29;20366;-88
2022/09/07 13:41:14;;;;;;;1.42;1.10;;;28.90;85.10;;;;;;4832049;29;20045;-88
2022/09/07 13:43:47;;;;;;;1.30;1.00;;;28.90;85.40;;;;;;4872403;29;20131;-90
2022/09/07 13:46:57;;;;;;;2.17;0.68;;;28.80;85.60;;;;;;4888284;29;20045;-85
2022/09/07 13:49:34;;;;;;;2.03;1.13;;;28.70;85.20;;;;;;4810738;29;20060;-85
2022/09/07 13:52:26;;;;;;;1.70;1.20;;;28.60;84.60;;;;;;4860527;29;20513;-85
2022/09/07 13:55:07;;;;;;;2.35;1.00;;;28.40;85.30;;;;;;4811220;29;20049;-85
2022/09/07 13:57:39;;;;;;;2.42;0.90;;;28.50;85.40;;;;;;4860423;29;20097;-85
2022/09/07 14:00:12;;;;;;;1.52;0.90;;;28.40;86.60;;;;;;4860377;29;20084;-85
2022/09/07 14:02:39;;;;;;;1.75;1.13;;;28.20;84.60;;;;;;4845131;29;20049;-83
2022/09/07 14:05:05;;;;;;;1.25;0.90;;;28.10;87.10;;;;;;4860280;29;20045;-83
2022/09/07 14:07:31;;;;;;;1.25;0.90;;;28.10;87.10;;;;;;4862284;29;20201;-83
2022/09/07 14:10:28;;;;;;;0.77;0.63;;;28.00;85.00;;;;;;4848195;29;20532;-86
2022/09/07 14:13:02;;;;;;;;;;;28.00;85.20;;;;;;4817405;29;20105;-83
2022/09/07 14:15:35;;;;;;;2.40;0.80;;;28.10;86.20;;;;;;4845942;29;19933;-85
2022/09/07 14:18:24;;;;;;;2.05;1.02;;;28.10;85.00;;;;;;4857138;29;20045;-83
2022/09/07 14:20:52;;;;;;;0.90;0.80;;;28.30;85.40;;;;;;4863330;29;20057;-83
2022/09/07 14:23:33;;;;;;;1.83;0.90;;;28.10;84.00;;;;;;4862870;29;20381;-82
2022/09/07 14:26:20;;;;;;;0.93;0.63;;;27.80;83.90;;;;;;4859601;29;20050;-82
2022/09/07 14:28:49;;;;;;;1.27;0.68;;;27.90;83.40;;;;;;4861527;29;20094;-82
2022/09/07 14:31:18;;;;;;;0.90;0.60;;;27.90;84.30;;;;;;4847652;29;20057;-82
2022/09/07 14:33:52;;;;;;;1.67;0.70;;;27.80;85.40;;;;;;4860993;29;20056;-82
2022/09/07 14:36:24;;;;;;;2.55;1.05;;;27.70;84.60;;;;;;4863625;29;20045;-83
2022/09/07 14:38:50;;;;;;;1.38;0.90;;;27.70;84.50;;;;;;4863142;29;20041;-83
2022/09/07 14:41:17;;;;;;;0.70;0.70;;;27.50;85.50;;;;;;4861507;29;20056;-83
2022/09/07 14:43:52;;;;;;;0.98;0.75;;;27.50;83.20;;;;;;4867070;29;20041;-83
2022/09/07 14:46:25;;;;;;;1.55;0.70;;;27.40;82.20;;;;;;4862941;29;20057;-83
2022/09/07 14:48:56;;;;;;;0.68;0.60;;;27.30;82.50;;;;;;4862513;29;20076;-83
2022/09/07 14:51:23;;;;;;;3.75;1.02;;;27.30;82.30;;;;;;4844581;29;20077;-83
2022/09/07 14:53:55;;;;;;;0.90;0.88;;;27.30;83.50;;;;;;4858938;29;20048;-82
2022/09/07 14:56:23;;;;;;;0.47;0.47;;;27.30;82.60;;;;;;4841387;29;20044;-82
2022/09/07 14:58:51;;;;;;;0.73;0.60;;;27.30;81.60;;;;;;4879831;29;20049;-82
2022/09/07 15:01:22;;;;;;;0.70;0.60;;;27.30;83.50;;;;;;4872968;29;20049;-82
2022/09/07 15:03:48;;;;;;;1.95;0.60;;;27.30;83.10;;;;;;4862101;29;20045;-82
2022/09/07 15:06:35;;;;;;;3.92;1.08;;;27.30;82.80;;;;;;4863006;29;20508;-82
2022/09/07 15:09:02;;;;;;;1.77;0.70;;;27.20;82.10;;;;;;4855076;29;20060;-82
2022/09/07 15:11:34;;;;;;;1.45;0.73;;;27.20;81.90;;;;;;4863015;29;20077;-82
2022/09/07 15:14:16;;;;;;;0.40;0.40;;;27.00;82.30;;;;;;4865800;29;20532;-82
2022/09/07 15:16:43;;;;;;;1.08;0.95;;;26.90;83.00;;;;;;4862488;29;20053;-82
2022/09/07 15:19:14;;;;;;;1.17;0.93;;;26.70;81.80;;;;;;4862545;29;20513;-82
2022/09/07 15:21:41;;;;;;;1.08;0.75;;;26.60;83.20;;;;;;4846827;29;20046;-82
2022/09/07 15:24:08;;;;;;;0.75;0.75;;;26.60;83.40;;;;;;4831088;29;20492;-84
2022/09/07 15:26:40;;;;;;;1.10;0.70;;;26.40;83.60;;;;;;4862769;29;20190;-84
2022/09/07 15:29:08;;;;;;;2.28;1.33;;;26.40;83.00;;;;;;4862867;29;20053;-84
2022/09/07 15:31:35;;;;;;;1.27;0.88;;;26.30;84.80;;;;;;4865790;29;20046;-85
2022/09/07 15:34:03;;;;;;;1.38;0.70;;;26.30;84.40;;;;;;4862668;29;20404;-84
2022/09/07 15:36:29;;;;;;;1.77;0.88;;;26.30;84.40;;;;;;4878415;29;20060;-84
2022/09/07 15:38:56;;;;;;;1.67;0.70;;;26.30;84.00;;;;;;4867958;29;20042;-84
2022/09/07 15:41:22;;;;;;;1.15;0.90;;;26.40;85.10;;;;;;4860900;29;20052;-83
2022/09/07 15:43:48;;;;;;;1.17;0.70;;;26.40;85.40;;;;;;4862611;29;20136;-82
2022/09/07 15:46:13;;;;;;;0.90;0.80;;;26.50;86.50;;;;;;4847341;29;20060;-82
2022/09/07 15:48:49;;;;;;;1.55;1.00;;;26.50;84.90;;;;;;4862168;29;20106;-82
2022/09/07 15:51:15;;;;;;;;;;;26.50;84.40;;;;;;4863093;29;20046;-83
2022/09/07 15:53:40;;;;;;;2.53;0.98;;;26.50;85.30;;;;;;4861929;29;19927;-83
2022/09/07 15:56:06;;;;;;;2.08;0.82;;;26.30;84.80;;;;;;4860164;29;20188;-83
2022/09/07 15:58:32;;;;;;;0.95;0.68;;;26.20;86.00;;;;;;4862230;29;20404;-83
2022/09/07 16:01:02;;;;;;;1.15;1.02;;;26.00;85.20;;;;;;4846415;29;20045;-80
2022/09/07 16:03:28;;;;;;;1.23;0.90;;;25.70;85.40;;;;;;4870944;29;20049;-81
2022/09/07 16:05:54;;;;;;;2.47;0.90;;;25.60;86.80;;;;;;4865205;29;20441;-81
2022/09/07 16:08:20;;;;;;;1.38;0.82;;;25.60;86.50;;;;;;4877530;29;20042;-81
2022/09/07 16:10:47;;;;;;;1.38;1.08;;;25.50;87.30;;;;;;4846265;29;20049;-81
2022/09/07 16:13:13;;;;;;;3.03;0.90;;;25.40;86.90;;;;;;4863332;29;20083;-80
2022/09/07 16:15:44;;;;;;;2.88;1.23;;;25.30;86.60;;;;;;4831618;29;20082;-82
2022/09/07 16:18:11;;;;;;;2.67;1.05;;;25.20;87.00;;;;;;4845823;29;20552;-82
2022/09/07 16:20:40;;;;;;;0.93;0.60;;;25.00;86.00;;;;;;4831636;29;20381;-82
2022/09/07 16:23:09;;;;;;;1.80;0.85;;;25.00;85.90;;;;;;4861151;29;20049;-82
2022/09/07 16:25:36;;;;;;;1.77;0.80;;;24.80;86.00;;;;;;4861546;29;20401;-82
2022/09/07 16:28:03;;;;;;;1.30;0.75;;;24.80;86.40;;;;;;4845311;29;20453;-82
2022/09/07 16:30:30;;;;;;;1.17;0.75;;;24.80;87.80;;;;;;4861141;29;20045;-82
2022/09/07 16:32:56;;;;;;;2.08;0.73;;;24.70;87.80;;;;;;4845540;29;20385;-82
2022/09/07 16:35:22;;;;;;;1.90;0.90;;;24.70;88.70;;;;;;4861545;29;20049;-82
2022/09/07 16:37:48;;;;;;;2.35;0.95;;;24.70;87.80;;;;;;4846037;29;20040;-82
2022/09/07 16:40:14;;;;;;;1.50;0.82;;;24.60;89.10;;;;;;4844958;29;20140;-82
2022/09/07 16:42:39;;;;;;;0.68;0.65;;;24.60;88.40;;;;;;4860768;29;20407;-81
2022/09/07 16:45:05;;;;;;;1.85;1.08;;;24.50;89.60;;;;;;4842369;29;20054;-82
2022/09/07 16:47:31;;;;;;;1.13;0.90;;;24.50;89.30;;;;;;4857563;29;20415;-80
2022/09/07 16:49:57;;;;;;;2.47;1.13;;;24.30;89.20;;;;;;4853790;29;20038;-80
2022/09/07 16:52:22;;;;;;;0.80;0.70;;;24.20;90.20;;;;;;4845936;29;20069;-81
2022/09/07 16:54:49;;;;;;;1.52;0.80;;;24.10;90.00;;;;;;4845463;29;20078;-81
2022/09/07 16:57:16;;;;;;;2.58;1.10;;;24.00;90.50;;;;;;4868600;29;20053;-82
2022/09/07 16:59:43;;;;;;;2.97;0.75;;;24.00;90.70;;;;;;4860494;29;20493;-82
2022/09/07 17:02:18;;;;;;;1.30;0.80;;;23.90;90.20;;;;;;4844865;29;20053;-82
2022/09/07 17:04:44;;;;;;;2.60;1.13;;;23.80;90.80;;;;;;4860408;29;20068;-84
2022/09/07 17:07:11;;;;;;;0.68;0.52;;;23.80;90.60;;;;;;4829828;29;20042;-84
2022/09/07 17:09:37;;;;;;;1.13;0.65;;;23.70;91.10;;;;;;4860576;29;20369;-84
2022/09/07 17:12:03;;;;;;;2.42;0.90;;;23.60;91.00;;;;;;4859267;29;20119;-84
2022/09/07 17:14:29;;;;;;;1.15;1.00;;;23.60;90.60;;;;;;4834529;29;20045;-84
2022/09/07 17:16:55;;;;;;;0.90;0.75;;;23.50;91.40;;;;;;4859352;29;20049;-84
2022/09/07 17:19:21;;;;;;;3.67;0.98;;;23.40;91.30;;;;;;4841515;29;20432;-85
2022/09/07 17:21:48;;;;;;;1.10;0.85;;;23.30;91.70;;;;;;4861103;29;20053;-84
2022/09/07 17:24:15;;;;;;;1.40;1.00;;;23.10;92.50;;;;;;4854595;29;20128;-84
2022/09/07 17:26:41;;;;;;;1.23;0.80;;;23.00;92.30;;;;;;4860305;29;20049;-84
2022/09/07 17:29:07;;;;;;;2.05;1.00;;;22.90;92.40;;;;;;4843098;29;20037;-84
2022/09/07 17:31:37;;;;;;;1.77;1.08;;;22.80;92.60;;;;;;4860237;29;20049;-84
2022/09/07 17:34:03;;;;;;;2.00;0.88;;;22.80;92.40;;;;;;4848695;29;20041;-84
2022/09/07 17:36:29;;;;;;;1.27;0.80;;;22.70;92.70;;;;;;4861233;29;20443;-84
2022/09/07 17:38:59;;;;;;;1.77;0.90;;;22.60;93.70;;;;;;4860470;29;20577;-83
2022/09/07 17:41:28;;;;;;;0.70;0.60;;;22.40;93.90;;;;;;4843482;29;20060;-83
2022/09/07 17:43:55;;;;;;;1.85;1.08;;;22.30;93.70;;;;;;4859799;29;20064;-83
2022/09/07 17:46:26;;;;;;;2.05;0.88;;;22.10;94.70;;;;;;4866301;29;20045;-83
2022/09/07 17:48:55;;;;;;;1.45;0.75;;;22.00;94.90;;;;;;4860788;29;20037;-83
2022/09/07 17:51:22;;;;;;;1.42;1.20;;;21.90;94.30;;;;;;4860748;29;20385;-83
2022/09/07 17:53:48;;;;;;;2.25;0.90;;;21.90;94.60;;;;;;4846499;29;20030;-84
2022/09/07 17:56:15;;;;;;;2.10;0.80;;;21.80;95.40;;;;;;4843877;29;20053;-84
2022/09/07 17:58:43;;;;;;;1.48;0.98;;;21.70;95.70;;;;;;4859868;29;20049;-84
2022/09/07 18:01:15;;;;;;;1.63;0.68;;;21.60;95.90;;;;;;4860146;29;20438;-84
2022/09/07 18:03:41;;;;;;;4.10;1.40;;;21.40;96.10;;;;;;4865383;29;20041;-83
2022/09/07 18:06:07;;;;;;;1.77;1.00;;;21.30;96.60;;;;;;4847116;29;20045;-84
2022/09/07 18:08:34;;;;;;;1.20;0.80;;;21.20;97.20;;;;;;4852260;29;20049;-84
2022/09/07 18:11:08;;;;;;;0.75;0.75;;;21.00;97.50;;;;;;4864583;29;20053;-82
2022/09/07 18:13:34;;;;;;;1.05;0.82;;;20.90;97.60;;;;;;4858945;29;20069;-82
2022/09/07 18:16:00;;;;;;;2.35;0.88;;;20.70;98.40;;;;;;4847741;29;20049;-82
2022/09/07 18:18:29;;;;;;;3.67;0.95;;;20.60;99.10;;;;;;4878982;29;20490;-82
2022/09/07 18:20:54;;;;;;;1.23;0.90;;;20.40;99.80;;;;;;4874920;29;20053;-82
2022/09/07 18:23:20;;;;;;;1.83;0.70;;;20.30;99.90;;;;;;4850770;29;20046;-82
2022/09/07 18:25:55;;;;;;;0.88;0.60;;;20.20;99.90;;;;;;4860594;29;20079;-82
2022/09/07 18:28:21;;;;;;;0.75;0.60;;;20.10;99.90;;;;;;4843780;29;20077;-84
2022/09/07 18:30:47;;;;;;;2.00;0.82;;;20.00;99.90;;;;;;4825920;29;20081;-84
2022/09/07 18:33:14;;;;;;;1.15;0.75;;;19.90;99.90;;;;;;4858508;29;20049;-84
2022/09/07 18:35:44;;;;;;;0.73;0.60;;;19.80;99.90;;;;;;4860424;29;20049;-83
2022/09/07 18:38:10;;;;;;;2.47;0.95;;;19.80;99.90;;;;;;4859592;29;20077;-84
2022/09/07 18:40:36;;;;;;;2.33;0.82;;;19.70;99.90;;;;;;4843431;29;20100;-83
2022/09/07 18:43:02;;;;;;;3.10;1.05;;;19.70;99.90;;;;;;4859143;29;20145;-83
2022/09/07 18:45:28;;;;;;;1.70;1.00;;;19.60;99.90;;;;;;4844530;29;20490;-84
2022/09/07 18:47:54;;;;;;;3.45;1.30;;;19.50;99.90;;;;;;4843902;29;20120;-84
2022/09/07 18:50:22;;;;;;;2.60;1.40;;;19.50;99.90;;;;;;4859418;29;20521;-84
2022/09/07 18:52:47;;;;;;;2.13;1.20;;;19.50;99.90;;;;;;4845921;29;20037;-84
2022/09/07 18:55:14;;;;;;;1.88;1.15;;;19.50;99.90;;;;;;4871825;29;20124;-84
2022/09/07 18:57:40;;;;;;;1.60;1.08;;;19.40;99.90;;;;;;4878577;29;20368;-84
2022/09/07 19:00:08;;;;;;;2.72;1.48;;;19.40;99.90;;;;;;4847254;29;20045;-83
2022/09/07 19:02:34;;;;;;;4.13;2.28;;;19.40;99.90;;;;;;4862700;29;20037;-82
2022/09/07 19:05:00;;;;;;;6.60;1.60;;;19.40;99.90;;;;;;4854452;29;20045;-82
2022/09/07 19:07:26;;;;;;;3.22;1.55;;;19.40;99.90;;;;;;4862896;29;20045;-82
2022/09/07 19:09:52;;;;;;;4.28;2.28;;;19.40;99.90;;;;;;4862967;29;20041;-83
2022/09/07 19:12:17;;;;;;;2.83;1.83;;;19.40;99.90;;;;;;4862507;29;20042;-83
2022/09/07 19:14:43;;;;;;;3.53;1.92;;;19.40;99.90;;;;;;4863021;29;20053;-83
2022/09/07 19:17:10;;;;;;;3.85;1.92;;;19.30;99.90;;;;;;4863321;29;20185;-83
2022/09/07 19:19:37;;;;;;;5.10;2.53;;;19.30;99.90;;;;;;4863163;29;20117;-84
2022/09/07 19:22:02;;;;;;;4.25;2.28;;;19.30;99.90;;;;;;4847611;29;20050;-83
2022/09/07 19:24:28;;;;;;;4.80;2.60;;;19.30;99.90;;;;;;4840839;29;20382;-84
2022/09/07 19:26:54;;;;;;;4.70;2.33;;;19.30;99.90;;;;;;4844362;29;20055;-83
2022/09/07 19:29:22;;;;;;;5.28;2.67;;;19.30;99.90;;;;;;4852030;29;20053;-83
2022/09/07 19:32:05;;;;;;;5.20;2.67;;;19.30;99.90;;;;;;4847334;29;20052;-83
2022/09/07 19:34:39;;;;;;;5.25;2.40;;;19.20;99.90;;;;;;4847171;29;20045;-83
2022/09/07 19:37:07;;;;;;;5.40;2.10;;;19.20;99.90;;;;;;4877701;29;20037;-84
2022/09/07 19:39:33;;;;;;;2.40;1.52;;;19.20;99.90;;;;;;4861591;29;20076;-84
2022/09/07 19:41:59;;;;;;;3.30;2.03;;;19.20;99.90;;;;;;4847168;29;20096;-84
2022/09/07 19:44:25;;;;;;;3.75;2.10;;;19.20;99.90;;;;;;4861904;29;20529;-84
2022/09/07 19:46:51;;;;;;;3.42;1.80;;;19.20;99.90;;;;;;4846409;29;20053;-84
2022/09/07 19:49:17;;;;;;;5.15;1.70;;;19.20;99.90;;;;;;4846592;29;20086;-84
2022/09/07 19:51:43;;;;;;;3.38;1.92;;;19.20;99.90;;;;;;4846592;29;20128;-83
2022/09/07 19:54:10;;;;;;;5.75;2.50;;;19.10;99.90;;;;;;4861549;29;20041;-83
2022/09/07 19:56:37;;;;;;;3.10;1.90;;;19.10;99.90;;;;;;4861218;29;20124;-83
2022/09/07 19:59:03;;;;;;;3.90;1.98;;;19.10;99.90;;;;;;4846506;29;20508;-83
2022/09/07 20:01:30;;;;;;;2.17;1.70;;;19.10;99.90;;;;;;4862059;29;20077;-83
2022/09/07 20:04:02;;;;;;;2.65;1.80;;;19.00;99.90;;;;;;4861757;29;20038;-83
2022/09/07 20:06:31;;;;;;;1.20;1.00;;;19.00;99.90;;;;;;4861928;29;20128;-83
2022/09/07 20:08:58;;;;;;;3.70;1.98;;;19.00;99.90;;;;;;4862417;29;20049;-84
2022/09/07 20:11:24;;;;;;;6.63;3.20;;;18.90;99.90;;;;;;4861952;29;20430;-84
2022/09/07 20:13:50;;;;;;;5.45;3.47;;;18.90;99.90;;;;;;4846803;29;20046;-84
2022/09/07 20:16:18;;;;;;;4.95;3.00;;;18.80;99.90;;;;;;4861046;29;20056;-84
2022/09/07 20:18:45;;;;;;;6.40;3.38;;;18.80;99.90;;;;;;4877428;29;20046;-84
2022/09/07 20:21:14;;;;;;;4.10;2.40;;;18.70;99.90;;;;;;4858601;29;20069;-84
2022/09/07 20:23:40;;;;;;;8.00;3.55;;;18.70;99.90;;;;;;4861372;29;20378;-84
2022/09/07 20:26:08;;;;;;;5.35;3.13;;;18.60;99.90;;;;;;4854901;29;20045;-84
2022/09/07 20:28:35;;;;;;;5.10;3.30;;;18.60;99.90;;;;;;4845694;29;20128;-84